Kabrousse, Senegal
Current Conditions -  °F | °C
As of 6:00 PM on Friday 24 Oct 2014 (Local Time) from GOGS Reporting Station
Broken Clouds Broken Clouds  
Wind Chill: 88°   Ceiling: 23000
Heat Index: 100°   Visibility: 6mi
Dew Point: 77°   Wind: 5mph
Humidity: 70%   Direction: 300°WNW
Pressure: 29.83"   Gusts: NA
Location:  12.35°N, 16.72°W
Report Text: GOGS 241800Z 30004KT 9999 FEW020TCU SCT130 BKN230 31/25 Q1010
Loading
Personal Weather Stations






























Interactive Weather Map
Tropical Storm Tracking
New forecast layout! Learn more

10-Day Weather Forecast

Advertisements
Track Severe Weather on mobile